Time;durP1;ratioP1;P1;durP2;ratioP2;P2;SDS_P1;SDS_P2;PMS_P1;PMS_P2;Temp;Humidity;BMP_temperature;BMP_pressure;BME280_temperature;BME280_humidity;BME280_pressure;Samples;Min_cycle;Max_cycle;Signal;HPM_P1;HPM_P2
2023/06/21 00:00:15;;;;;;;7.22;6.15;;;;;;;20.53;78.82;101141.88;7397196;19;19990;-69
2023/06/21 00:02:47;;;;;;;7.72;5.63;;;;;;;20.50;79.41;101136.03;7403901;19;20408;-69
2023/06/21 00:05:16;;;;;;;7.93;5.80;;;;;;;20.47;78.77;101147.44;7404874;19;19927;-69
2023/06/21 00:07:47;;;;;;;8.02;5.82;;;;;;;20.44;78.63;101150.66;7405448;19;19930;-69
2023/06/21 00:10:18;;;;;;;11.02;5.90;;;;;;;20.42;79.00;101156.38;7407978;19;19919;-69
2023/06/21 00:12:46;;;;;;;8.40;5.43;;;;;;;20.41;79.34;101162.91;7408075;19;19930;-69
2023/06/21 00:15:15;;;;;;;7.25;5.30;;;;;;;20.39;79.18;101165.06;7404048;19;19998;-69
2023/06/21 00:17:46;;;;;;;8.70;5.80;;;;;;;20.37;79.80;101169.91;7406413;19;19922;-68
2023/06/21 00:20:15;;;;;;;7.93;5.72;;;;;;;20.37;78.92;101175.38;7405876;19;19977;-69
2023/06/21 00:22:45;;;;;;;9.57;6.65;;;;;;;20.36;79.72;101187.44;7404128;19;19935;-69
2023/06/21 00:25:15;;;;;;;8.88;6.85;;;;;;;20.34;79.58;101176.69;7405731;19;20001;-69
2023/06/21 00:27:44;;;;;;;9.52;7.15;;;;;;;20.35;79.13;101188.50;7405840;19;19929;-69
2023/06/21 00:30:13;;;;;;;15.23;7.70;;;;;;;20.32;79.39;101197.97;7402505;19;19918;-69
2023/06/21 00:32:42;;;;;;;11.93;8.57;;;;;;;20.29;79.48;101198.44;7404113;19;19925;-69
2023/06/21 00:35:13;;;;;;;11.07;7.95;;;;;;;20.30;79.76;101188.34;7402492;19;20508;-69
2023/06/21 00:37:44;;;;;;;11.32;8.73;;;;;;;20.28;79.77;101179.50;7404554;19;19935;-69
2023/06/21 00:40:14;;;;;;;13.50;9.02;;;;;;;20.26;79.55;101174.28;7406546;19;19933;-69
2023/06/21 00:42:43;;;;;;;14.18;9.35;;;;;;;20.27;79.41;101189.63;7402246;19;19918;-68
2023/06/21 00:45:17;;;;;;;12.60;9.65;;;;;;;20.29;80.24;101192.09;7406949;19;19932;-68
2023/06/21 00:47:45;;;;;;;15.68;10.07;;;;;;;20.28;79.77;101193.16;7405638;19;19928;-69
2023/06/21 00:50:17;;;;;;;13.23;10.20;;;;;;;20.29;80.15;101189.38;7401871;19;19982;-69
2023/06/21 00:52:46;;;;;;;;;;;;;;;20.06;81.42;101187.41;7407937;19;19931;-69
2023/06/21 00:55:19;;;;;;;16.20;10.52;;;;;;;20.20;80.11;101188.88;7404471;19;19926;-69
2023/06/21 00:57:47;;;;;;;;;;;;;;;20.06;81.76;101198.34;7404274;19;20321;-69
2023/06/21 01:00:20;;;;;;;13.77;10.40;;;;;;;20.23;79.54;101199.38;7406012;19;20256;-69
2023/06/21 01:02:49;;;;;;;16.58;10.88;;;;;;;20.25;79.86;101194.47;7390314;19;19930;-69
2023/06/21 01:05:23;;;;;;;16.77;10.88;;;;;;;20.24;80.01;101181.03;7401964;19;19922;-69
2023/06/21 01:08:01;;;;;;;16.67;11.98;;;;;;;20.25;80.20;101191.75;7403514;19;19990;-68
2023/06/21 01:10:34;;;;;;;;;;;;;;;20.08;82.30;101201.66;7406656;19;19982;-68
2023/06/21 01:13:16;;;;;;;16.05;11.63;;;;;;;20.23;80.70;101204.84;7401863;19;19922;-69
2023/06/21 01:15:47;;;;;;;19.00;12.45;;;;;;;20.26;79.82;101206.25;7402936;19;19917;-69
2023/06/21 01:18:17;;;;;;;17.63;13.45;;;;;;;20.25;80.15;101212.78;7400393;19;19927;-69
2023/06/21 01:20:56;;;;;;;19.02;12.85;;;;;;;20.20;80.80;101210.75;7404619;19;19926;-69
2023/06/21 01:23:51;;;;;;;17.92;13.63;;;;;;;20.09;81.80;101210.72;7399758;19;19922;-69
2023/06/21 01:26:25;;;;;;;;;;;;;;;19.97;82.35;101221.59;7403283;19;19925;-69
2023/06/21 01:29:16;;;;;;;20.58;12.93;;;;;;;20.03;81.65;101228.88;7402010;19;19929;-69
2023/06/21 01:31:46;;;;;;;16.58;13.15;;;;;;;20.11;80.63;101224.97;7404144;19;19918;-69
2023/06/21 01:34:15;;;;;;;20.55;14.30;;;;;;;20.13;80.59;101220.13;7401784;19;19933;-70
2023/06/21 01:36:44;;;;;;;20.08;13.45;;;;;;;20.13;80.75;101207.28;7398576;19;20245;-69
2023/06/21 01:39:15;;;;;;;19.55;13.98;;;;;;;20.13;80.95;101210.03;7403249;19;19935;-68
2023/06/21 01:41:43;;;;;;;18.83;14.68;;;;;;;20.13;80.55;101217.41;7403409;19;19927;-69
2023/06/21 01:44:16;;;;;;;20.70;14.82;;;;;;;20.13;80.93;101220.13;7401969;19;19946;-69
2023/06/21 01:46:45;;;;;;;19.27;15.07;;;;;;;20.12;81.02;101219.28;7401004;19;19919;-69
2023/06/21 01:49:17;;;;;;;24.25;15.57;;;;;;;20.10;81.10;101220.59;7403919;19;19925;-69
2023/06/21 01:51:47;;;;;;;20.70;15.10;;;;;;;20.08;80.54;101231.75;7402779;19;19922;-69
2023/06/21 01:54:20;;;;;;;21.05;15.95;;;;;;;20.09;80.78;101229.88;7402811;19;19943;-69
2023/06/21 01:56:54;;;;;;;23.05;16.88;;;;;;;20.07;80.86;101223.78;7397444;19;20344;-69
2023/06/21 01:59:26;;;;;;;22.23;15.45;;;;;;;20.09;81.13;101229.88;7399043;19;20344;-69
2023/06/21 02:01:55;;;;;;;19.65;15.60;;;;;;;20.08;80.89;101233.66;7401694;19;19930;-69
2023/06/21 02:04:25;;;;;;;23.13;15.25;;;;;;;20.08;80.98;101229.03;7398687;19;19939;-69
2023/06/21 02:06:56;;;;;;;21.08;15.55;;;;;;;20.06;81.53;101222.13;7400736;19;19919;-69
2023/06/21 02:09:25;;;;;;;20.75;16.13;;;;;;;20.03;81.45;101225.31;7402602;19;19926;-69
2023/06/21 02:11:54;;;;;;;18.23;14.52;;;;;;;20.04;81.28;101232.44;7398688;19;20271;-69
2023/06/21 02:14:26;;;;;;;19.38;15.15;;;;;;;20.01;80.81;101231.03;7399070;19;19957;-69
2023/06/21 02:16:54;;;;;;;20.40;14.63;;;;;;;19.98;81.43;101242.41;7401039;19;20615;-71
2023/06/21 02:19:24;;;;;;;17.92;13.98;;;;;;;19.97;81.45;101245.38;7403233;19;19937;-67
2023/06/21 02:21:54;;;;;;;20.40;13.65;;;;;;;19.90;81.28;101243.56;7398895;19;20549;-70
2023/06/21 02:24:22;;;;;;;19.98;14.45;;;;;;;19.88;81.59;101244.88;7401744;19;20015;-68
2023/06/21 02:26:51;;;;;;;19.55;14.35;;;;;;;19.87;81.16;101249.50;7400076;19;19954;-69
2023/06/21 02:29:20;;;;;;;20.00;14.65;;;;;;;19.82;81.84;101253.97;7401796;19;19998;-68
2023/06/21 02:31:51;;;;;;;23.55;14.68;;;;;;;19.76;81.53;101263.91;7403532;19;19943;-70
2023/06/21 02:34:20;;;;;;;21.75;14.65;;;;;;;19.72;81.50;101259.97;7399876;19;20239;-71
2023/06/21 02:36:53;;;;;;;19.55;13.82;;;;;;;19.72;81.40;101253.66;7400470;19;19948;-69
2023/06/21 02:39:24;;;;;;;19.42;13.80;;;;;;;19.69;81.01;101257.69;7401490;19;20461;-68
2023/06/21 02:41:54;;;;;;;21.83;13.90;;;;;;;19.66;81.43;101258.16;7401148;19;20340;-69
2023/06/21 02:44:23;;;;;;;18.50;13.18;;;;;;;19.62;81.35;101256.09;7403378;19;19918;-69
2023/06/21 02:46:56;;;;;;;19.20;13.60;;;;;;;19.55;82.04;101261.63;7403036;19;20324;-69
2023/06/21 02:49:25;;;;;;;18.48;13.57;;;;;;;19.51;81.54;101262.28;7401891;19;19929;-69
2023/06/21 02:51:53;;;;;;;18.00;13.00;;;;;;;19.47;81.82;101261.91;7399521;19;19931;-69
2023/06/21 02:54:22;;;;;;;20.15;13.93;;;;;;;19.46;81.75;101266.53;7402876;19;19986;-69
2023/06/21 02:56:52;;;;;;;19.35;13.65;;;;;;;19.44;82.22;101270.56;7400730;19;20002;-69
2023/06/21 02:59:21;;;;;;;21.05;13.52;;;;;;;19.43;82.24;101272.47;7402073;19;19930;-69
2023/06/21 03:01:49;;;;;;;21.90;14.30;;;;;;;19.43;81.89;101277.94;7401805;19;19930;-69
2023/06/21 03:04:21;;;;;;;22.63;14.27;;;;;;;19.45;82.23;101272.25;7398215;19;20017;-69
2023/06/21 03:06:50;;;;;;;22.23;13.70;;;;;;;19.44;81.86;101281.50;7400293;19;20288;-69
2023/06/21 03:09:18;;;;;;;21.42;14.95;;;;;;;19.39;81.81;101282.16;7401616;19;19951;-69
2023/06/21 03:11:48;;;;;;;21.98;14.15;;;;;;;19.38;82.07;101285.09;7399865;19;19989;-69
2023/06/21 03:14:17;;;;;;;20.40;15.13;;;;;;;19.37;82.08;101289.72;7397537;19;20353;-69
2023/06/21 03:16:45;;;;;;;21.25;14.48;;;;;;;19.34;82.37;101289.34;7399702;19;19922;-69
2023/06/21 03:19:15;;;;;;;21.15;15.52;;;;;;;19.35;81.99;101285.56;7397969;19;19942;-68
2023/06/21 03:21:46;;;;;;;22.92;15.40;;;;;;;19.36;81.93;101289.97;7396898;19;19925;-69
2023/06/21 03:24:16;;;;;;;24.00;15.98;;;;;;;19.38;81.64;101298.75;7399926;19;19915;-69
2023/06/21 03:26:44;;;;;;;24.23;16.27;;;;;;;19.34;81.69;101287.44;7394275;19;20002;-68
2023/06/21 03:29:13;;;;;;;26.70;17.38;;;;;;;19.34;81.70;101292.06;7401454;19;19929;-69
2023/06/21 03:31:42;;;;;;;26.20;17.92;;;;;;;19.33;81.71;101293.13;7397438;19;19935;-69
2023/06/21 03:34:11;;;;;;;21.73;15.98;;;;;;;19.33;81.97;101302.16;7399480;19;20718;-69
2023/06/21 03:36:39;;;;;;;25.80;16.83;;;;;;;19.32;81.65;101305.97;7401945;19;19927;-69
2023/06/21 03:39:10;;;;;;;25.65;16.83;;;;;;;19.33;82.03;101301.31;7406361;19;20590;-69
2023/06/21 03:41:39;;;;;;;26.15;17.48;;;;;;;19.31;82.16;101295.25;7401613;19;19987;-69
2023/06/21 03:44:08;;;;;;;26.20;17.85;;;;;;;19.29;81.84;101306.41;7406885;19;19918;-69
2023/06/21 03:46:37;;;;;;;26.88;18.50;;;;;;;19.27;82.34;101310.44;7406059;19;19926;-69
2023/06/21 03:49:06;;;;;;;29.25;18.17;;;;;;;19.28;81.72;101306.66;7405948;19;19918;-69
2023/06/21 03:51:35;;;;;;;30.15;19.05;;;;;;;19.25;81.58;101316.09;7399596;19;19922;-70
2023/06/21 03:54:03;;;;;;;27.45;17.95;;;;;;;19.25;81.73;101323.47;7406626;19;19922;-69
2023/06/21 03:56:35;;;;;;;30.13;19.27;;;;;;;19.23;81.80;101317.41;7405050;19;19926;-69
2023/06/21 03:59:04;;;;;;;28.27;19.92;;;;;;;19.24;81.88;101322.63;7405622;19;19961;-69
2023/06/21 04:01:33;;;;;;;27.92;18.05;;;;;;;19.25;81.69;101335.22;7404932;19;19926;-68
2023/06/21 04:04:02;;;;;;;27.45;19.52;;;;;;;19.24;81.56;101346.41;7404432;19;19939;-69
2023/06/21 04:06:31;;;;;;;30.75;20.05;;;;;;;19.23;81.64;101351.03;7405794;19;19930;-68
2023/06/21 04:08:59;;;;;;;29.63;19.65;;;;;;;19.24;81.24;101346.41;7406717;19;19919;-69
2023/06/21 04:11:28;;;;;;;30.83;21.25;;;;;;;19.26;81.36;101353.31;7404843;19;19926;-68
2023/06/21 04:13:59;;;;;;;34.95;22.27;;;;;;;19.26;81.75;101358.75;7405672;19;19983;-69
2023/06/21 04:16:28;;;;;;;31.52;21.13;;;;;;;19.29;81.22;101355.56;7403285;19;19914;-69
2023/06/21 04:18:57;;;;;;;30.48;20.33;;;;;;;19.32;81.05;101365.25;7404976;19;19923;-69
2023/06/21 04:21:26;;;;;;;32.75;21.45;;;;;;;19.33;81.51;101366.88;7401790;19;19922;-69
2023/06/21 04:23:55;;;;;;;35.70;22.67;;;;;;;19.36;81.71;101363.75;7404176;19;19923;-69
2023/06/21 04:26:24;;;;;;;35.40;24.15;;;;;;;19.37;81.21;101373.63;7402545;19;19978;-69
2023/06/21 04:28:53;;;;;;;37.58;23.83;;;;;;;19.36;80.80;101366.47;7404133;19;19982;-70
2023/06/21 04:31:25;;;;;;;36.45;24.50;;;;;;;19.35;81.11;101367.53;7404699;19;20683;-69
2023/06/21 04:33:54;;;;;;;37.50;23.63;;;;;;;19.35;80.79;101375.72;7406084;19;19915;-70
2023/06/21 04:36:24;;;;;;;37.10;24.42;;;;;;;19.37;81.00;101368.97;7399989;19;19937;-69
2023/06/21 04:38:53;;;;;;;38.05;23.73;;;;;;;19.37;81.11;101362.69;7404150;19;19930;-69
2023/06/21 04:41:22;;;;;;;36.55;23.70;;;;;;;19.38;80.93;101370.63;7405969;19;19926;-69
2023/06/21 04:43:51;;;;;;;37.10;23.98;;;;;;;19.36;80.87;101378.25;7407123;19;19922;-68
2023/06/21 04:46:21;;;;;;;39.28;23.55;;;;;;;19.35;81.55;101375.72;7403430;19;20008;-69
2023/06/21 04:48:52;;;;;;;38.58;24.75;;;;;;;19.38;81.38;101364.34;7404470;19;20291;-69
2023/06/21 04:51:21;;;;;;;37.72;24.42;;;;;;;19.41;81.30;101377.56;7405124;19;20319;-70
2023/06/21 04:53:50;;;;;;;39.88;23.83;;;;;;;19.43;81.27;101378.19;7405490;19;19966;-69
2023/06/21 04:56:18;;;;;;;38.90;23.70;;;;;;;19.45;81.26;101376.09;7404170;19;19986;-69
2023/06/21 04:58:47;;;;;;;37.33;23.63;;;;;;;19.44;81.19;101375.25;7404313;19;19951;-69
2023/06/21 05:01:18;;;;;;;39.92;25.60;;;;;;;19.44;81.12;101379.88;7405009;19;20142;-69
2023/06/21 05:03:48;;;;;;;38.47;23.98;;;;;;;19.43;81.08;101391.88;7403538;19;19922;-69
2023/06/21 05:06:22;;;;;;;36.70;23.92;;;;;;;19.43;81.37;101394.59;7402419;19;19962;-69
2023/06/21 05:08:50;;;;;;;35.35;23.02;;;;;;;19.43;81.00;101395.44;7400424;19;19994;-69
2023/06/21 05:11:20;;;;;;;39.05;24.33;;;;;;;19.45;80.68;101385.13;7404466;19;19927;-69
2023/06/21 05:13:49;;;;;;;36.72;24.10;;;;;;;19.46;80.66;101377.75;7400778;19;19929;-69
2023/06/21 05:16:17;;;;;;;35.78;23.27;;;;;;;19.48;81.12;101381.09;7401859;19;19919;-70
2023/06/21 05:18:46;;;;;;;35.72;23.38;;;;;;;19.48;80.75;101379.22;7398460;19;20014;-70
2023/06/21 05:21:15;;;;;;;32.15;21.30;;;;;;;19.51;80.54;101385.28;7401777;19;19981;-69
2023/06/21 05:23:46;;;;;;;36.33;23.08;;;;;;;19.48;80.77;101392.03;7399922;19;19931;-69
2023/06/21 05:26:15;;;;;;;35.67;22.05;;;;;;;19.51;80.26;101401.69;7403662;19;19942;-70
2023/06/21 05:28:44;;;;;;;36.95;22.65;;;;;;;19.51;80.38;101394.31;7402568;19;20430;-69
2023/06/21 05:31:13;;;;;;;34.10;21.80;;;;;;;19.53;80.34;101408.63;7393713;19;19926;-69
2023/06/21 05:33:41;;;;;;;35.65;21.38;;;;;;;19.55;80.26;101394.69;7393471;19;19990;-70
2023/06/21 05:36:10;;;;;;;35.55;21.35;;;;;;;19.57;80.54;101400.78;7391389;19;19943;-69
2023/06/21 05:38:39;;;;;;;32.95;20.52;;;;;;;19.56;79.96;101408.16;7387255;19;19938;-69
2023/06/21 05:41:10;;;;;;;31.48;20.45;;;;;;;19.55;79.91;101420.13;7392961;19;19956;-69
2023/06/21 05:43:39;;;;;;;35.47;21.75;;;;;;;19.58;79.84;101413.41;7392070;19;19963;-70
2023/06/21 05:46:08;;;;;;;30.65;19.88;;;;;;;19.58;79.44;101419.72;7391175;19;19953;-70
2023/06/21 05:48:37;;;;;;;33.05;20.15;;;;;;;19.63;79.81;101419.84;7395769;19;19921;-70
2023/06/21 05:51:06;;;;;;;32.78;20.27;;;;;;;19.67;79.84;101428.47;7300737;19;20249;-70
2023/06/21 05:53:35;;;;;;;30.25;19.27;;;;;;;19.72;79.41;101440.41;7392700;19;19940;-70
2023/06/21 05:56:03;;;;;;;27.88;18.05;;;;;;;19.73;78.32;101443.97;7391366;19;19927;-70
2023/06/21 05:58:35;;;;;;;26.42;17.52;;;;;;;19.72;78.24;101442.28;7395356;19;19922;-70
2023/06/21 06:01:04;;;;;;;28.33;18.23;;;;;;;19.71;78.48;101452.41;7392030;19;19946;-70
2023/06/21 06:03:34;;;;;;;27.80;18.23;;;;;;;19.75;78.48;101447.34;7395228;19;19921;-70
2023/06/21 06:06:02;;;;;;;26.60;17.83;;;;;;;19.78;78.35;101457.81;7398936;19;19922;-69
2023/06/21 06:08:31;;;;;;;28.15;17.92;;;;;;;19.80;78.28;101451.03;7393233;19;19918;-70
2023/06/21 06:11:00;;;;;;;30.60;18.58;;;;;;;19.88;77.78;101461.72;7401807;19;19934;-68
2023/06/21 06:13:29;;;;;;;27.48;17.98;;;;;;;19.94;77.90;101465.44;7399374;19;20281;-69
2023/06/21 06:16:02;;;;;;;28.92;18.08;;;;;;;19.98;77.75;101460.34;7403252;19;19926;-70
2023/06/21 06:18:31;;;;;;;27.27;17.38;;;;;;;20.02;77.79;101470.63;7400631;19;19925;-68
2023/06/21 06:20:59;;;;;;;26.15;16.50;;;;;;;20.05;76.71;101496.72;7401010;19;19943;-68
2023/06/21 06:23:28;;;;;;;25.52;16.05;;;;;;;20.04;76.90;101489.56;7400324;19;19942;-68
2023/06/21 06:25:57;;;;;;;25.35;16.38;;;;;;;20.05;76.63;101483.88;7400043;19;19978;-68
2023/06/21 06:28:26;;;;;;;29.63;17.75;;;;;;;20.11;76.58;101482.13;7396833;19;19946;-68
2023/06/21 06:30:54;;;;;;;27.35;16.63;;;;;;;20.17;76.47;101483.97;7402304;19;20470;-68
2023/06/21 06:33:26;;;;;;;25.85;15.70;;;;;;;20.16;75.87;101479.56;7400836;19;19926;-68
2023/06/21 06:35:54;;;;;;;23.27;14.55;;;;;;;20.20;76.13;101488.97;7402560;19;19919;-68
2023/06/21 06:38:23;;;;;;;22.65;14.95;;;;;;;20.24;75.81;101498.41;7396968;19;19919;-68
2023/06/21 06:40:52;;;;;;;21.98;14.27;;;;;;;20.28;75.11;101488.69;7403079;19;19926;-68
2023/06/21 06:43:21;;;;;;;18.80;13.07;;;;;;;20.29;74.71;101501.31;7401368;19;19935;-68
2023/06/21 06:45:49;;;;;;;19.85;13.00;;;;;;;20.29;74.92;101493.09;7400285;19;19923;-68
2023/06/21 06:48:18;;;;;;;19.52;13.05;;;;;;;20.30;74.98;101506.59;7401070;19;19982;-68
2023/06/21 06:50:49;;;;;;;21.17;12.73;;;;;;;20.26;73.93;101505.34;7400050;19;19926;-68
2023/06/21 06:53:18;;;;;;;19.48;12.35;;;;;;;20.23;74.44;101508.53;7400255;19;19922;-66
2023/06/21 06:55:47;;;;;;;20.88;12.15;;;;;;;20.28;74.56;101505.09;7401923;19;19926;-66
2023/06/21 06:58:15;;;;;;;18.35;11.93;;;;;;;20.30;73.96;101506.59;7398054;19;19936;-66
2023/06/21 07:00:44;;;;;;;15.48;10.20;;;;;;;20.29;73.81;101531.41;7400542;19;19932;-66
2023/06/21 07:03:13;;;;;;;15.27;11.10;;;;;;;20.31;73.15;101518.38;7400615;19;20027;-66
2023/06/21 07:05:45;;;;;;;17.58;12.25;;;;;;;20.27;73.40;101517.97;7397109;19;19926;-66
2023/06/21 07:08:17;;;;;;;19.63;11.85;;;;;;;20.26;72.76;101529.97;7399670;19;19923;-66
2023/06/21 07:10:46;;;;;;;16.40;10.77;;;;;;;20.28;73.68;101521.53;7398944;19;19918;-66
2023/06/21 07:13:15;;;;;;;18.95;10.98;;;;;;;20.34;73.07;101528.88;7398836;19;20285;-66
2023/06/21 07:15:44;;;;;;;16.25;10.40;;;;;;;20.38;72.85;101530.94;7398599;19;19918;-66
2023/06/21 07:18:12;;;;;;;19.75;10.68;;;;;;;20.43;72.93;101538.47;7399711;19;19990;-65
2023/06/21 07:20:41;;;;;;;17.48;9.80;;;;;;;20.45;72.57;101530.84;7399779;19;19978;-66
2023/06/21 07:23:10;;;;;;;15.32;9.30;;;;;;;20.47;72.41;101536.97;7399867;19;19914;-66
2023/06/21 07:25:42;;;;;;;15.45;8.75;;;;;;;20.47;72.08;101538.84;7396710;19;19988;-66
2023/06/21 07:28:11;;;;;;;13.68;8.25;;;;;;;20.48;71.25;101530.44;7398534;19;19925;-66
2023/06/21 07:30:42;;;;;;;11.48;7.38;;;;;;;20.49;71.42;101540.31;7399600;19;19919;-66
2023/06/21 07:33:10;;;;;;;13.45;8.65;;;;;;;20.51;70.46;101543.66;7401143;19;19991;-66
2023/06/21 07:35:39;;;;;;;11.95;7.45;;;;;;;20.55;70.91;101553.09;7400176;19;19926;-66
2023/06/21 07:38:08;;;;;;;13.55;7.75;;;;;;;20.57;70.08;101544.66;7400631;19;19922;-66
2023/06/21 07:40:37;;;;;;;11.07;7.35;;;;;;;20.62;70.74;101547.56;7396687;19;19919;-66
2023/06/21 07:43:08;;;;;;;13.05;6.97;;;;;;;20.63;69.24;101561.00;7400903;19;19926;-66
2023/06/21 07:45:37;;;;;;;13.48;7.53;;;;;;;20.69;70.06;101548.31;7400968;19;19995;-66
2023/06/21 07:48:07;;;;;;;13.27;7.15;;;;;;;20.73;69.95;101555.84;7401809;19;19918;-66
2023/06/21 07:50:36;;;;;;;9.75;6.82;;;;;;;20.78;69.58;101561.50;7398689;19;19926;-65
2023/06/21 07:53:04;;;;;;;12.57;6.60;;;;;;;20.83;69.73;101575.34;7397075;19;19929;-66
2023/06/21 07:55:33;;;;;;;11.80;6.68;;;;;;;20.92;69.54;101578.63;7398588;19;19927;-65
2023/06/21 07:58:02;;;;;;;10.07;7.05;;;;;;;21.00;69.03;101588.44;7400311;19;20578;-66
2023/06/21 08:00:33;;;;;;;10.70;6.68;;;;;;;21.05;68.55;101592.16;7400065;19;20046;-66
2023/06/21 08:03:02;;;;;;;9.70;5.63;;;;;;;21.10;68.21;101575.00;7399956;19;20297;-65
2023/06/21 08:05:31;;;;;;;10.02;5.85;;;;;;;21.14;68.08;101606.44;7399713;19;19922;-66
2023/06/21 08:08:01;;;;;;;10.93;6.05;;;;;;;21.16;68.04;101571.41;7399068;19;19915;-65
2023/06/21 08:10:31;;;;;;;10.13;5.05;;;;;;;21.22;67.39;101575.97;7399262;19;19923;-65
2023/06/21 08:13:00;;;;;;;10.25;6.07;;;;;;;21.23;66.55;101586.69;7399368;19;19918;-65
2023/06/21 08:15:29;;;;;;;7.18;5.15;;;;;;;21.27;66.68;101595.28;7401225;19;20264;-66
2023/06/21 08:18:00;;;;;;;8.55;5.72;;;;;;;21.30;67.14;101603.06;7398098;19;19926;-65
2023/06/21 08:20:29;;;;;;;11.05;6.55;;;;;;;21.33;66.35;101604.50;7398612;19;20347;-66
2023/06/21 08:22:58;;;;;;;8.95;5.65;;;;;;;21.31;66.77;101602.00;7401511;19;19931;-66
2023/06/21 08:25:28;;;;;;;9.15;5.80;;;;;;;21.33;66.48;101599.84;7406392;19;19919;-66
2023/06/21 08:27:57;;;;;;;10.05;6.25;;;;;;;21.42;66.48;101606.69;7406043;19;19946;-66
2023/06/21 08:30:26;;;;;;;8.68;5.18;;;;;;;21.47;65.70;101606.84;7403110;19;20331;-66
2023/06/21 08:32:54;;;;;;;8.68;5.07;;;;;;;21.50;65.29;101611.03;7406283;19;20335;-66
2023/06/21 08:35:26;;;;;;;6.07;4.28;;;;;;;21.56;64.62;101612.84;7404403;19;19919;-66
2023/06/21 08:37:58;;;;;;;8.70;5.63;;;;;;;21.54;63.42;101628.69;7404507;19;19922;-66
2023/06/21 08:40:30;;;;;;;10.20;5.50;;;;;;;21.58;64.38;101614.28;7405059;19;19922;-65
2023/06/21 08:42:59;;;;;;;11.63;4.72;;;;;;;21.67;65.07;101615.63;7404254;19;19915;-66
2023/06/21 08:45:28;;;;;;;11.82;5.70;;;;;;;21.74;64.63;101627.34;7407160;19;19930;-66
2023/06/21 08:48:01;;;;;;;10.48;5.15;;;;;;;21.77;63.74;101626.06;7403901;19;20331;-66
2023/06/21 08:50:32;;;;;;;9.05;5.43;;;;;;;21.85;63.21;101636.69;7405854;19;20661;-66
2023/06/21 08:53:07;;;;;;;10.57;6.00;;;;;;;21.83;61.81;101627.84;7405884;19;19985;-70
2023/06/21 08:55:37;;;;;;;9.02;5.40;;;;;;;21.88;63.06;101638.97;7405413;19;20398;-71
2023/06/21 08:58:12;;;;;;;7.57;5.47;;;;;;;21.94;62.81;101637.25;7404027;19;19994;-70
2023/06/21 09:00:45;;;;;;;8.23;5.40;;;;;;;22.01;62.35;101633.31;7406351;19;19923;-69
2023/06/21 09:03:20;;;;;;;8.55;5.15;;;;;;;22.06;61.72;101638.94;7405696;19;20322;-69
2023/06/21 09:05:55;;;;;;;8.60;5.60;;;;;;;22.10;61.86;101636.56;7405380;19;19922;-69
2023/06/21 09:08:24;;;;;;;7.82;5.22;;;;;;;22.22;62.32;101639.38;7390324;19;19918;-69
2023/06/21 09:10:55;;;;;;;7.07;4.90;;;;;;;22.33;61.46;101646.78;7403784;19;19926;-69
2023/06/21 09:13:27;;;;;;;8.88;5.45;;;;;;;22.42;60.79;101656.34;7404480;19;19928;-69
2023/06/21 09:15:57;;;;;;;6.88;4.68;;;;;;;22.59;60.43;101655.41;7391342;19;19990;-68
2023/06/21 09:18:35;;;;;;;8.95;4.45;;;;;;;22.69;60.86;101662.25;7402442;19;19961;-69
2023/06/21 09:21:09;;;;;;;8.73;4.13;;;;;;;22.77;57.25;101661.91;7403374;19;19943;-70
2023/06/21 09:23:38;;;;;;;4.80;3.50;;;;;;;22.89;58.60;101655.34;7403021;19;19926;-69
2023/06/21 09:26:07;;;;;;;6.15;4.22;;;;;;;23.10;58.24;101656.63;7403232;19;19919;-70
2023/06/21 09:28:36;;;;;;;7.63;4.47;;;;;;;23.28;58.54;101666.66;7404070;19;19926;-69
2023/06/21 09:31:05;;;;;;;7.65;3.90;;;;;;;23.46;57.85;101659.13;7404328;19;19922;-69
2023/06/21 09:33:36;;;;;;;8.57;4.70;;;;;;;23.50;57.28;101670.47;7402502;19;19918;-69
2023/06/21 09:36:08;;;;;;;4.55;3.63;;;;;;;23.47;56.59;101668.22;7404308;19;19918;-69
2023/06/21 09:38:38;;;;;;;6.50;4.53;;;;;;;23.45;57.53;101662.09;7402362;19;19919;-69
2023/06/21 09:41:09;;;;;;;7.10;4.10;;;;;;;23.30;57.95;101662.56;7403277;19;19929;-69
2023/06/21 09:43:44;;;;;;;8.73;4.95;;;;;;;23.34;57.23;101674.75;7404016;19;19922;-69
2023/06/21 09:46:14;;;;;;;6.90;5.30;;;;;;;23.35;58.07;101679.19;7403339;19;19923;-69
2023/06/21 09:48:43;;;;;;;7.65;3.95;;;;;;;23.38;57.32;101667.72;7404049;19;19938;-69
2023/06/21 09:51:17;;;;;;;6.68;3.42;;;;;;;23.43;56.40;101677.97;7402911;19;19927;-69
2023/06/21 09:53:47;;;;;;;7.07;4.05;;;;;;;23.51;56.40;101697.72;7402574;19;19930;-69
2023/06/21 09:56:19;;;;;;;8.02;4.35;;;;;;;23.48;56.44;101683.63;7400073;19;19986;-70
2023/06/21 09:58:50;;;;;;;8.52;4.28;;;;;;;23.60;57.11;101684.41;7396203;19;19922;-71
2023/06/21 10:01:19;;;;;;;6.32;3.85;;;;;;;23.63;57.23;101688.63;7403591;19;19943;-71
2023/06/21 10:03:49;;;;;;;6.45;4.20;;;;;;;23.56;56.42;101676.94;7401869;19;19970;-69
2023/06/21 10:06:30;;;;;;;6.90;3.95;;;;;;;23.62;55.37;101682.28;7404892;19;19918;-69
2023/06/21 10:09:01;;;;;;;5.93;3.78;;;;;;;23.83;56.40;101695.38;7404534;19;19922;-74
2023/06/21 10:11:30;;;;;;;6.72;4.30;;;;;;;23.88;56.46;101681.72;7404988;19;20744;-76
2023/06/21 10:13:58;;;;;;;6.47;4.57;;;;;;;24.01;55.33;101677.81;7404541;19;19918;-76
2023/06/21 10:16:27;;;;;;;6.93;4.00;;;;;;;24.15;55.71;101676.47;7405068;19;19933;-75
2023/06/21 10:19:00;;;;;;;5.90;4.20;;;;;;;24.17;55.57;101681.72;7402885;19;19922;-75
2023/06/21 10:21:34;;;;;;;5.13;3.95;;;;;;;24.07;55.50;101687.88;7402048;19;19922;-75
2023/06/21 10:24:05;;;;;;;10.48;5.40;;;;;;;23.89;56.93;101680.63;7403394;19;19930;-75
2023/06/21 10:26:36;;;;;;;7.20;5.25;;;;;;;23.84;56.63;101688.78;7404078;19;20351;-74
2023/06/21 10:29:06;;;;;;;7.72;4.05;;;;;;;23.98;56.33;101680.25;7403550;19;19922;-75
2023/06/21 10:31:36;;;;;;;5.88;3.97;;;;;;;23.92;56.01;101682.88;7404014;19;19926;-77
2023/06/21 10:34:10;;;;;;;6.22;3.85;;;;;;;23.95;55.14;101687.06;7405081;19;19974;-76
2023/06/21 10:36:48;;;;;;;7.25;4.55;;;;;;;23.97;54.75;101684.91;7404899;19;19926;-78
2023/06/21 10:39:19;;;;;;;9.13;4.40;;;;;;;24.17;54.20;101688.06;7402704;19;20293;-77
2023/06/21 10:41:48;;;;;;;3.90;2.65;;;;;;;24.34;54.76;101691.69;7405054;19;20034;-78
2023/06/21 10:44:18;;;;;;;4.60;2.90;;;;;;;24.43;53.52;101689.34;7405186;19;19918;-77
2023/06/21 10:46:49;;;;;;;6.75;2.97;;;;;;;24.59;53.30;101687.72;7402462;19;20348;-76
2023/06/21 10:49:18;;;;;;;4.38;2.80;;;;;;;24.73;52.46;101691.78;7313719;19;19927;-77
2023/06/21 10:51:51;;;;;;;6.18;2.78;;;;;;;24.91;51.56;101696.25;7302909;19;98824;-75
2023/06/21 10:54:20;;;;;;;4.43;2.65;;;;;;;25.14;51.75;101694.13;7307488;19;19964;-74
2023/06/21 10:56:50;;;;;;;3.97;2.55;;;;;;;25.33;50.81;101685.56;7402919;19;19936;-76
2023/06/21 10:59:23;;;;;;;6.38;3.03;;;;;;;25.48;50.04;101685.75;7401179;19;19930;-75
2023/06/21 11:01:53;;;;;;;6.53;2.72;;;;;;;25.61;50.09;101696.44;7401517;19;20268;-72
2023/06/21 11:04:22;;;;;;;6.65;3.15;;;;;;;25.69;49.23;101699.59;7396521;19;19918;-70
2023/06/21 11:07:01;;;;;;;6.07;2.47;;;;;;;25.56;49.24;101696.38;7397255;19;20423;-70
2023/06/21 11:09:31;;;;;;;5.20;2.42;;;;;;;25.38;51.03;101704.94;7396901;19;19911;-73
2023/06/21 11:12:00;;;;;;;4.32;2.97;;;;;;;25.53;50.06;101699.63;7401833;19;20340;-72
2023/06/21 11:14:32;;;;;;;6.30;2.78;;;;;;;25.72;49.31;101710.13;7401122;19;19926;-70
2023/06/21 11:17:12;;;;;;;3.85;2.22;;;;;;;25.81;47.24;101701.38;7368010;19;19919;-71
2023/06/21 11:19:57;;;;;;;4.00;2.30;;;;;;;25.74;48.42;101696.06;7390936;19;19918;-71
2023/06/21 11:22:28;;;;;;;5.93;2.95;;;;;;;25.71;48.61;101708.44;7401537;19;20300;-71
2023/06/21 11:25:00;;;;;;;3.97;2.83;;;;;;;25.59;49.30;101715.19;7401155;19;20020;-71
2023/06/21 11:27:28;;;;;;;;;;;;;;;25.34;48.59;101707.38;7403853;19;19925;-71
2023/06/21 11:30:09;;;;;;;3.58;1.95;;;;;;;25.36;47.52;101720.91;7412916;19;19978;-71